createdAt,value
2022-08-04T00:00:17.916Z,787
2022-08-04T00:02:17.946Z,782
2022-08-04T00:04:17.898Z,796
2022-08-04T00:06:17.743Z,782
2022-08-04T00:08:17.560Z,775
2022-08-04T00:10:17.593Z,780
2022-08-04T00:12:17.633Z,781
2022-08-04T00:14:18.185Z,780
2022-08-04T00:16:18.087Z,772
2022-08-04T00:18:18.253Z,770
2022-08-04T00:20:17.922Z,774
2022-08-04T00:22:17.735Z,776
2022-08-04T00:24:17.978Z,766
2022-08-04T00:26:17.761Z,741
2022-08-04T00:28:17.569Z,750
2022-08-04T00:30:17.441Z,749
2022-08-04T00:32:34.282Z,752
2022-08-04T00:34:17.423Z,746
2022-08-04T00:36:18.266Z,756
2022-08-04T00:38:18.125Z,751
2022-08-04T00:40:17.926Z,755
2022-08-04T00:42:17.459Z,756
2022-08-04T00:44:23.178Z,761
2022-08-04T00:46:18.258Z,759
2022-08-04T00:48:18.229Z,760
2022-08-04T00:50:17.335Z,760
2022-08-04T00:52:32.950Z,743
2022-08-04T00:54:17.553Z,735
2022-08-04T00:56:17.305Z,734
2022-08-04T00:58:18.184Z,724
2022-08-04T01:00:17.315Z,725
2022-08-04T01:02:18.251Z,735
2022-08-04T01:04:22.010Z,736
2022-08-04T01:06:17.746Z,737
2022-08-04T01:08:17.587Z,741
2022-08-04T01:10:17.807Z,739
2022-08-04T01:12:17.827Z,738
2022-08-04T01:14:17.576Z,742
2022-08-04T01:16:17.404Z,749
2022-08-04T01:18:17.416Z,731
2022-08-04T01:20:17.525Z,726
2022-08-04T01:22:17.487Z,710
2022-08-04T01:24:22.564Z,707
2022-08-04T01:26:42.889Z,709
2022-08-04T01:28:22.587Z,707
2022-08-04T01:30:17.849Z,714
2022-08-04T01:32:18.061Z,709
2022-08-04T01:34:17.679Z,710
2022-08-04T01:36:17.945Z,713
2022-08-04T01:38:18.110Z,713
2022-08-04T01:40:18.290Z,711
2022-08-04T01:42:26.469Z,703
2022-08-04T01:44:18.120Z,709
2022-08-04T01:46:18.175Z,692
2022-08-04T01:48:17.943Z,687
2022-08-04T01:50:17.488Z,682
2022-08-04T01:52:17.512Z,675
2022-08-04T01:54:17.433Z,668
2022-08-04T01:56:17.889Z,667
2022-08-04T01:58:18.111Z,669
2022-08-04T02:00:17.939Z,678
2022-08-04T02:02:17.876Z,674
2022-08-04T02:04:23.005Z,677
2022-08-04T02:06:18.433Z,669
2022-08-04T02:08:18.293Z,701
2022-08-04T02:10:18.208Z,688
2022-08-04T02:12:18.044Z,699
2022-08-04T02:14:17.466Z,697
2022-08-04T02:16:17.352Z,707
2022-08-04T02:18:18.308Z,700
2022-08-04T02:20:18.242Z,740
2022-08-04T02:22:18.056Z,708
2022-08-04T02:24:17.811Z,508
2022-08-04T02:26:19.399Z,737
2022-08-04T02:28:17.985Z,727
2022-08-04T02:30:18.483Z,737
2022-08-04T02:32:17.558Z,733
2022-08-04T02:34:17.504Z,666
2022-08-04T02:36:18.346Z,722
2022-08-04T02:38:18.209Z,747
2022-08-04T02:40:18.345Z,731
2022-08-04T02:42:17.415Z,757
2022-08-04T02:44:18.199Z,746
2022-08-04T02:46:18.301Z,646
2022-08-04T02:48:29.704Z,797
2022-08-04T02:50:25.428Z,724
2022-08-04T02:52:17.887Z,699
2022-08-04T02:54:22.415Z,707
2022-08-04T02:56:17.476Z,713
2022-08-04T02:58:17.349Z,701
2022-08-04T03:00:18.244Z,704
2022-08-04T03:02:17.851Z,703
2022-08-04T03:04:22.153Z,698
2022-08-04T03:06:17.636Z,696
2022-08-04T03:08:17.376Z,699
2022-08-04T03:10:18.361Z,696
2022-08-04T03:12:18.239Z,691
2022-08-04T03:14:18.057Z,690
2022-08-04T03:16:17.444Z,699
2022-08-04T03:18:18.243Z,694
2022-08-04T03:20:18.435Z,704
2022-08-04T03:22:17.643Z,707
2022-08-04T03:24:20.108Z,701
2022-08-04T03:26:18.129Z,707
2022-08-04T03:28:18.030Z,697
2022-08-04T03:30:17.850Z,704
2022-08-04T03:32:18.344Z,690
2022-08-04T03:34:18.173Z,703
2022-08-04T03:36:18.214Z,694
2022-08-04T03:38:17.818Z,712
2022-08-04T03:40:17.686Z,692
2022-08-04T03:42:17.675Z,689
2022-08-04T03:44:17.529Z,711
2022-08-04T03:46:18.357Z,716
2022-08-04T03:48:18.211Z,707
2022-08-04T03:50:18.359Z,692
2022-08-04T03:52:18.367Z,680
2022-08-04T03:54:18.231Z,668
2022-08-04T03:56:18.148Z,674
2022-08-04T03:58:18.063Z,674
2022-08-04T04:00:17.846Z,660
2022-08-04T04:02:17.771Z,656
2022-08-04T04:04:17.596Z,663
2022-08-04T04:06:17.708Z,660
2022-08-04T04:08:18.636Z,660
2022-08-04T04:10:19.073Z,657
2022-08-04T04:12:18.502Z,652
2022-08-04T04:14:19.299Z,658
2022-08-04T04:16:18.262Z,661
2022-08-04T04:18:18.163Z,635
2022-08-04T04:20:18.159Z,671
2022-08-04T04:22:17.973Z,665
2022-08-04T04:24:17.797Z,671
2022-08-04T04:26:17.533Z,661
2022-08-04T04:28:43.825Z,674
2022-08-04T04:30:18.183Z,683
2022-08-04T04:32:18.262Z,679
2022-08-04T04:34:18.101Z,689
2022-08-04T04:36:18.318Z,688
2022-08-04T04:38:18.205Z,678
2022-08-04T04:40:18.065Z,677
2022-08-04T04:42:17.917Z,692
2022-08-04T04:44:17.857Z,706
2022-08-04T04:46:17.648Z,705
2022-08-04T04:48:17.749Z,693
2022-08-04T04:50:17.922Z,702
2022-08-04T04:52:18.016Z,713
2022-08-04T04:54:17.843Z,698
2022-08-04T04:56:17.513Z,701
2022-08-04T04:58:18.358Z,687
2022-08-04T05:00:18.121Z,693
2022-08-04T05:02:17.877Z,693
2022-08-04T05:04:17.749Z,687
2022-08-04T05:06:18.323Z,679
2022-08-04T05:08:44.001Z,697
2022-08-04T05:10:17.969Z,691
2022-08-04T05:12:18.505Z,704
2022-08-04T05:14:34.342Z,705
2022-08-04T05:16:18.286Z,711
2022-08-04T05:18:17.409Z,705
2022-08-04T05:20:18.254Z,718
2022-08-04T05:22:23.129Z,711
2022-08-04T05:24:17.937Z,714
2022-08-04T05:26:17.794Z,716
2022-08-04T05:28:18.087Z,719
2022-08-04T05:30:17.668Z,716
2022-08-04T05:32:18.061Z,710
2022-08-04T05:34:18.002Z,718
2022-08-04T05:36:27.425Z,712
2022-08-04T05:38:17.464Z,712
2022-08-04T05:40:17.509Z,714
2022-08-04T05:42:18.363Z,733
2022-08-04T05:44:18.199Z,724
2022-08-04T05:46:17.477Z,739
2022-08-04T05:48:17.610Z,736
2022-08-04T05:50:17.458Z,738
2022-08-04T05:52:18.078Z,747
2022-08-04T05:54:17.960Z,706
2022-08-04T05:56:18.254Z,586
2022-08-04T05:58:18.024Z,692
2022-08-04T06:00:38.703Z,649
2022-08-04T06:02:18.356Z,662
2022-08-04T06:04:17.457Z,629
2022-08-04T06:06:17.691Z,613
2022-08-04T06:08:17.696Z,610
2022-08-04T06:10:17.555Z,632
2022-08-04T06:12:17.953Z,632
2022-08-04T06:14:17.866Z,642
2022-08-04T06:16:18.059Z,657
2022-08-04T06:18:34.340Z,643
2022-08-04T06:20:22.226Z,648
2022-08-04T06:22:17.904Z,656
2022-08-04T06:24:17.793Z,652
2022-08-04T06:26:17.517Z,652
2022-08-04T06:28:17.473Z,663
2022-08-04T06:30:18.276Z,662
2022-08-04T06:32:29.399Z,661
2022-08-04T06:34:17.498Z,656
2022-08-04T06:36:18.385Z,643
2022-08-04T06:38:17.931Z,645
2022-08-04T06:40:30.345Z,657
2022-08-04T06:42:22.312Z,642
2022-08-04T06:44:17.980Z,651
2022-08-04T06:46:17.946Z,646
2022-08-04T06:48:17.730Z,653
2022-08-04T06:51:23.946Z,662
2022-08-04T06:52:18.241Z,666
2022-08-04T06:54:18.099Z,658
2022-08-04T06:56:17.902Z,654
2022-08-04T06:58:23.274Z,648
2022-08-04T07:00:18.277Z,640
2022-08-04T07:02:17.799Z,662
2022-08-04T07:04:17.480Z,664
2022-08-04T07:06:18.306Z,660
2022-08-04T07:08:17.571Z,650
2022-08-04T07:10:18.003Z,655
2022-08-04T07:12:18.196Z,665
2022-08-04T07:14:18.496Z,661
2022-08-04T07:16:17.603Z,655
2022-08-04T07:18:17.582Z,655
2022-08-04T07:20:33.072Z,651
2022-08-04T07:22:25.051Z,653
2022-08-04T07:24:18.361Z,664
2022-08-04T07:26:18.239Z,683
2022-08-04T07:28:17.992Z,692
2022-08-04T07:30:21.778Z,724
2022-08-04T07:32:17.841Z,739
2022-08-04T07:34:20.868Z,751
2022-08-04T07:36:18.003Z,758
2022-08-04T07:38:17.848Z,751
2022-08-04T07:40:17.836Z,744
2022-08-04T07:42:17.691Z,736
2022-08-04T07:44:17.514Z,719
2022-08-04T07:46:18.605Z,723
2022-08-04T07:48:18.371Z,720
2022-08-04T07:50:18.209Z,702
2022-08-04T07:52:18.075Z,691
2022-08-04T07:54:17.734Z,689
2022-08-04T07:56:17.839Z,713
2022-08-04T07:58:18.203Z,704
2022-08-04T08:00:18.116Z,688
2022-08-04T08:02:18.069Z,669
2022-08-04T08:04:17.584Z,663
2022-08-04T08:06:31.953Z,651
2022-08-04T08:08:17.879Z,671
2022-08-04T08:10:17.732Z,658
2022-08-04T08:12:34.879Z,643
2022-08-04T08:14:17.915Z,625
2022-08-04T08:16:17.988Z,642
2022-08-04T08:18:17.994Z,642
2022-08-04T08:20:28.886Z,660
2022-08-04T08:22:17.580Z,651
2022-08-04T08:24:17.325Z,681
2022-08-04T08:26:18.137Z,712
2022-08-04T08:28:17.892Z,728
2022-08-04T08:30:18.183Z,715
2022-08-04T08:32:18.096Z,711
2022-08-04T08:34:21.624Z,722
2022-08-04T08:36:17.963Z,748
2022-08-04T08:38:18.020Z,755
2022-08-04T08:40:17.836Z,773
2022-08-04T08:42:17.934Z,773
2022-08-04T08:44:19.358Z,775
2022-08-04T08:46:28.545Z,777
2022-08-04T08:48:17.918Z,791
2022-08-04T08:50:17.789Z,781
2022-08-04T08:52:18.363Z,793
2022-08-04T08:54:18.089Z,788
2022-08-04T08:56:17.916Z,794
2022-08-04T08:58:17.839Z,777
2022-08-04T09:00:17.751Z,766
2022-08-04T09:02:17.552Z,774
2022-08-04T09:04:22.677Z,773
2022-08-04T09:06:17.869Z,786
2022-08-04T09:08:17.489Z,772
2022-08-04T09:10:17.451Z,767
2022-08-04T09:12:19.171Z,775
2022-08-04T09:14:17.982Z,760
2022-08-04T09:16:17.821Z,777
2022-08-04T09:18:17.752Z,748
2022-08-04T09:20:17.859Z,750
2022-08-04T09:22:17.726Z,737
2022-08-04T09:24:35.973Z,731
2022-08-04T09:26:17.579Z,737
2022-08-04T09:28:31.843Z,727
2022-08-04T09:30:17.488Z,745
2022-08-04T09:32:17.452Z,746
2022-08-04T09:34:17.643Z,761
2022-08-04T09:36:25.644Z,778
2022-08-04T09:38:18.292Z,795
2022-08-04T09:40:29.091Z,789
2022-08-04T09:42:18.237Z,788
2022-08-04T09:44:42.461Z,769
2022-08-04T09:46:17.833Z,755
2022-08-04T09:48:17.659Z,703
2022-08-04T09:50:17.631Z,774
2022-08-04T09:52:17.679Z,778
2022-08-04T09:54:30.016Z,781
2022-08-04T09:56:17.881Z,788
2022-08-04T09:58:17.853Z,798
2022-08-04T10:00:17.619Z,799
2022-08-04T10:02:17.412Z,792
2022-08-04T10:04:18.229Z,787
2022-08-04T10:06:17.943Z,778
2022-08-04T10:08:17.722Z,781
2022-08-04T10:10:17.508Z,777
2022-08-04T10:12:17.390Z,768
2022-08-04T10:14:21.378Z,755
2022-08-04T10:16:17.601Z,762
2022-08-04T10:18:17.518Z,755
2022-08-04T10:20:33.860Z,742
2022-08-04T10:22:27.612Z,748
2022-08-04T10:24:17.479Z,710
2022-08-04T10:26:18.325Z,715
2022-08-04T10:28:18.109Z,742
2022-08-04T10:30:17.429Z,764
2022-08-04T10:32:18.194Z,775
2022-08-04T10:34:18.053Z,776
2022-08-04T10:36:17.895Z,782
2022-08-04T10:38:17.819Z,796
2022-08-04T10:40:17.656Z,793
2022-08-04T10:42:17.505Z,772
2022-08-04T10:44:18.302Z,780
2022-08-04T10:46:18.344Z,780
2022-08-04T10:48:18.456Z,785
2022-08-04T10:50:17.415Z,772
2022-08-04T10:52:18.224Z,775
2022-08-04T10:54:18.415Z,779
2022-08-04T10:56:17.530Z,783
2022-08-04T10:58:18.302Z,779
2022-08-04T11:00:18.150Z,793
2022-08-04T11:02:18.247Z,831
2022-08-04T11:04:26.954Z,822
2022-08-04T11:06:17.479Z,843
2022-08-04T11:08:20.655Z,854
2022-08-04T11:10:17.406Z,839
2022-08-04T11:12:17.375Z,845
2022-08-04T11:14:18.134Z,853
2022-08-04T11:16:18.239Z,877
2022-08-04T11:18:18.130Z,860
2022-08-04T11:20:34.395Z,904
2022-08-04T11:22:18.074Z,900
2022-08-04T11:24:17.851Z,913
2022-08-04T11:26:17.618Z,906
2022-08-04T11:28:17.766Z,908
2022-08-04T11:30:17.702Z,912
2022-08-04T11:32:17.630Z,918
2022-08-04T11:34:17.441Z,927
2022-08-04T11:36:18.299Z,942
2022-08-04T11:38:18.186Z,960
2022-08-04T11:40:18.026Z,957
2022-08-04T11:42:17.806Z,926
2022-08-04T11:44:17.721Z,964
2022-08-04T11:46:17.526Z,937
2022-08-04T11:48:17.691Z,935
2022-08-04T11:50:17.520Z,922
2022-08-04T11:52:17.803Z,941
2022-08-04T11:54:17.851Z,942
2022-08-04T11:56:27.656Z,972
2022-08-04T11:58:17.894Z,977
2022-08-04T12:00:17.838Z,1021
2022-08-04T12:02:20.909Z,984
2022-08-04T12:04:18.247Z,942
2022-08-04T12:06:18.198Z,928
2022-08-04T12:08:18.025Z,902
2022-08-04T12:10:18.243Z,871
2022-08-04T12:12:17.502Z,856
2022-08-04T12:14:18.310Z,856
2022-08-04T12:16:18.263Z,874
2022-08-04T12:18:18.269Z,872
2022-08-04T12:20:32.322Z,872
2022-08-04T12:22:17.451Z,877
2022-08-04T12:24:18.106Z,888
2022-08-04T12:26:17.955Z,896
2022-08-04T12:28:17.930Z,904
2022-08-04T12:30:54.436Z,902
2022-08-04T12:32:17.795Z,894
2022-08-04T12:34:18.016Z,899
2022-08-04T12:36:21.099Z,895
2022-08-04T12:38:18.155Z,887
2022-08-04T12:40:21.537Z,886
2022-08-04T12:42:21.261Z,881
2022-08-04T12:44:37.153Z,861
2022-08-04T12:46:18.138Z,857
2022-08-04T12:48:21.219Z,861
2022-08-04T12:50:18.183Z,881
2022-08-04T12:52:17.990Z,879
2022-08-04T12:54:17.817Z,901
2022-08-04T12:56:17.703Z,918
2022-08-04T12:58:41.797Z,915
2022-08-04T13:00:17.478Z,925
2022-08-04T13:02:17.714Z,928
2022-08-04T13:04:17.504Z,938
2022-08-04T13:06:21.346Z,946
2022-08-04T13:08:17.417Z,927
2022-08-04T13:10:23.287Z,934
2022-08-04T13:12:19.797Z,945
2022-08-04T13:14:26.910Z,949
2022-08-04T13:16:17.696Z,945
2022-08-04T13:18:17.979Z,950
2022-08-04T13:20:17.543Z,952
2022-08-04T13:22:17.601Z,945
2022-08-04T13:24:20.354Z,965
2022-08-04T13:26:41.232Z,948
2022-08-04T13:28:17.982Z,952
2022-08-04T13:30:23.543Z,954
2022-08-04T13:32:17.502Z,967
2022-08-04T13:34:19.240Z,971
2022-08-04T13:36:17.519Z,980
2022-08-04T13:38:17.452Z,980
2022-08-04T13:40:18.296Z,975
2022-08-04T13:42:18.092Z,984
2022-08-04T13:44:20.280Z,994
2022-08-04T13:46:27.370Z,984
2022-08-04T13:48:32.033Z,1044
2022-08-04T13:50:17.520Z,1061
2022-08-04T13:52:17.402Z,1073
2022-08-04T13:54:17.702Z,1057
2022-08-04T13:56:17.568Z,1005
2022-08-04T13:58:17.457Z,982
2022-08-04T14:00:19.531Z,967
2022-08-04T14:02:18.123Z,971
2022-08-04T14:04:17.932Z,957
2022-08-04T14:06:18.038Z,953
2022-08-04T14:08:17.877Z,941
2022-08-04T14:10:17.723Z,943
2022-08-04T14:12:39.212Z,938
2022-08-04T14:14:17.627Z,930
2022-08-04T14:16:17.443Z,922
2022-08-04T14:18:17.722Z,936
2022-08-04T14:20:17.528Z,923
2022-08-04T14:22:18.340Z,932
2022-08-04T14:24:18.168Z,929
2022-08-04T14:26:18.056Z,919
2022-08-04T14:28:17.930Z,934
2022-08-04T14:30:17.673Z,926
2022-08-04T14:32:21.467Z,927
2022-08-04T14:34:18.342Z,941
2022-08-04T14:36:17.806Z,940
2022-08-04T14:38:18.339Z,931
2022-08-04T14:40:30.423Z,927
2022-08-04T14:42:17.752Z,929
2022-08-04T14:44:17.649Z,947
2022-08-04T14:46:17.435Z,947
2022-08-04T14:48:18.324Z,951
2022-08-04T14:50:18.139Z,973
2022-08-04T14:52:17.953Z,1010
2022-08-04T14:54:19.172Z,1034
2022-08-04T14:56:30.936Z,1063
2022-08-04T14:58:32.488Z,1062
2022-08-04T15:00:19.097Z,1046
2022-08-04T15:02:18.025Z,1055
2022-08-04T15:04:17.902Z,1044
2022-08-04T15:06:21.744Z,1045
2022-08-04T15:08:18.110Z,1033
2022-08-04T15:10:23.162Z,1043
2022-08-04T15:12:18.015Z,1039
2022-08-04T15:14:18.548Z,1050
2022-08-04T15:16:17.832Z,1049
2022-08-04T15:18:17.767Z,1050
2022-08-04T15:20:17.641Z,1055
2022-08-04T15:22:17.898Z,1050
2022-08-04T15:24:17.631Z,1060
2022-08-04T15:26:17.457Z,1060
2022-08-04T15:28:18.305Z,1069
2022-08-04T15:30:18.135Z,1064
2022-08-04T15:32:17.995Z,1058
2022-08-04T15:34:17.865Z,1050
2022-08-04T15:36:17.594Z,1059
2022-08-04T15:38:17.833Z,1067
2022-08-04T15:40:17.759Z,1065
2022-08-04T15:42:21.363Z,1051
2022-08-04T15:44:18.068Z,1058
2022-08-04T15:46:42.110Z,1056
2022-08-04T15:48:17.724Z,1045
2022-08-04T15:50:28.035Z,1040
2022-08-04T15:52:17.422Z,1049
2022-08-04T15:54:21.228Z,1045
2022-08-04T15:56:18.242Z,1048
2022-08-04T15:58:17.717Z,1053
2022-08-04T16:00:17.553Z,1059
2022-08-04T16:02:18.428Z,1052
2022-08-04T16:04:18.307Z,1059
2022-08-04T16:06:18.117Z,1053
2022-08-04T16:08:17.830Z,1058
2022-08-04T16:10:17.723Z,1050
2022-08-04T16:12:32.116Z,1052
2022-08-04T16:14:18.200Z,1048
2022-08-04T16:16:17.406Z,1055
2022-08-04T16:18:25.846Z,1061
2022-08-04T16:20:17.568Z,1060
2022-08-04T16:22:17.461Z,1061
2022-08-04T16:24:18.244Z,1068
2022-08-04T16:26:18.028Z,1063
2022-08-04T16:28:17.615Z,1062
2022-08-04T16:30:17.438Z,1064
2022-08-04T16:32:17.619Z,1057
2022-08-04T16:34:45.799Z,1062
2022-08-04T16:36:18.007Z,1072
2022-08-04T16:38:17.900Z,1067
2022-08-04T16:40:17.727Z,1061
2022-08-04T16:42:17.552Z,1051
2022-08-04T16:44:36.432Z,1062
2022-08-04T16:46:21.859Z,1062
2022-08-04T16:48:17.810Z,1060
2022-08-04T16:50:17.618Z,1051
2022-08-04T16:52:17.472Z,1055
2022-08-04T16:54:18.312Z,1047
2022-08-04T16:56:17.579Z,1053
2022-08-04T16:58:17.989Z,1053
2022-08-04T17:00:17.880Z,1051
2022-08-04T17:02:17.762Z,1045
2022-08-04T17:04:17.697Z,1050
2022-08-04T17:06:17.560Z,1056
2022-08-04T17:08:29.401Z,1039
2022-08-04T17:10:17.824Z,1044
2022-08-04T17:12:17.651Z,1047
2022-08-04T17:14:17.862Z,1042
2022-08-04T17:16:18.195Z,1039
2022-08-04T17:18:18.718Z,1042
2022-08-04T17:20:17.669Z,1038
2022-08-04T17:22:17.396Z,1049
2022-08-04T17:24:18.159Z,1047
2022-08-04T17:26:23.036Z,1042
2022-08-04T17:28:21.180Z,1045
2022-08-04T17:30:18.133Z,1038
2022-08-04T17:32:18.184Z,1046
2022-08-04T17:34:19.392Z,1045
2022-08-04T17:36:18.118Z,1052
2022-08-04T17:38:17.968Z,1046
2022-08-04T17:40:18.256Z,1047
2022-08-04T17:42:18.164Z,1048
2022-08-04T17:44:18.269Z,1047
2022-08-04T17:46:28.374Z,1054
2022-08-04T17:48:24.083Z,1050
2022-08-04T17:50:22.644Z,1047
2022-08-04T17:52:31.258Z,1043
2022-08-04T17:54:29.711Z,1047
2022-08-04T17:56:17.804Z,1052
2022-08-04T17:58:20.653Z,1045
2022-08-04T18:00:19.426Z,1037
2022-08-04T18:02:17.551Z,1052
2022-08-04T18:04:18.236Z,1050
2022-08-04T18:06:17.786Z,1055
2022-08-04T18:08:35.945Z,1056
2022-08-04T18:10:30.447Z,1049
2022-08-04T18:12:17.723Z,1051
2022-08-04T18:14:17.681Z,1053
2022-08-04T18:16:22.523Z,1054
2022-08-04T18:18:19.638Z,1050
2022-08-04T18:20:17.473Z,1051
2022-08-04T18:22:26.609Z,1049
2022-08-04T18:24:18.023Z,1043
2022-08-04T18:26:18.239Z,1049
2022-08-04T18:28:22.423Z,1055
2022-08-04T18:30:39.166Z,1059
2022-08-04T18:32:17.834Z,1036
2022-08-04T18:34:22.148Z,1054
2022-08-04T18:36:35.685Z,1051
2022-08-04T18:38:22.289Z,1057
2022-08-04T18:40:26.236Z,1057
2022-08-04T18:42:18.055Z,1047
2022-08-04T18:44:18.274Z,1047
2022-08-04T18:46:18.004Z,1044
2022-08-04T18:48:17.537Z,1056
2022-08-04T18:50:32.814Z,1057
2022-08-04T18:52:17.910Z,1049
2022-08-04T18:54:17.927Z,1051
2022-08-04T18:56:28.087Z,1045
2022-08-04T18:58:20.928Z,1048
2022-08-04T19:00:19.746Z,1043
2022-08-04T19:02:18.051Z,1046
2022-08-04T19:04:32.526Z,1040
2022-08-04T19:06:17.422Z,1037
2022-08-04T19:08:33.996Z,1048
2022-08-04T19:10:23.645Z,1047
2022-08-04T19:12:17.527Z,1049
2022-08-04T19:14:17.696Z,1038
2022-08-04T19:16:20.934Z,1044
2022-08-04T19:18:18.665Z,1049
2022-08-04T19:20:24.439Z,1049
2022-08-04T19:22:35.396Z,1048
2022-08-04T19:24:27.236Z,1048
2022-08-04T19:26:23.870Z,1042
2022-08-04T19:28:17.920Z,1042
2022-08-04T19:30:18.265Z,1047
2022-08-04T19:32:17.755Z,1029
2022-08-04T19:34:17.565Z,1028
2022-08-04T19:36:18.095Z,1020
2022-08-04T19:38:18.006Z,1000
2022-08-04T19:40:17.938Z,984
2022-08-04T19:42:18.129Z,969
2022-08-04T19:44:17.582Z,960
2022-08-04T19:46:24.684Z,962
2022-08-04T19:48:19.739Z,963
2022-08-04T19:50:17.763Z,958
2022-08-04T19:52:33.584Z,951
2022-08-04T19:54:23.748Z,950
2022-08-04T19:56:18.019Z,960
2022-08-04T19:58:17.814Z,961
2022-08-04T20:00:17.685Z,953
2022-08-04T20:02:18.043Z,939
2022-08-04T20:04:17.865Z,926
2022-08-04T20:06:17.365Z,930
2022-08-04T20:08:17.485Z,926
2022-08-04T20:10:18.331Z,932
2022-08-04T20:12:17.764Z,931
2022-08-04T20:14:17.573Z,931
2022-08-04T20:16:29.027Z,934
2022-08-04T20:18:35.256Z,934
2022-08-04T20:20:17.368Z,931
2022-08-04T20:22:50.401Z,937
2022-08-04T20:24:37.214Z,922
2022-08-04T20:26:17.680Z,922
2022-08-04T20:28:25.869Z,915
2022-08-04T20:30:18.937Z,891
2022-08-04T20:32:19.381Z,899
2022-08-04T20:34:17.534Z,887
2022-08-04T20:36:18.317Z,883
2022-08-04T20:38:32.628Z,879
2022-08-04T20:40:18.216Z,873
2022-08-04T20:42:17.920Z,873
2022-08-04T20:44:22.178Z,873
2022-08-04T20:46:28.463Z,869
2022-08-04T20:48:17.575Z,868
2022-08-04T20:50:17.562Z,866
2022-08-04T20:52:20.456Z,854
2022-08-04T20:54:26.516Z,858
2022-08-04T20:56:19.450Z,855
2022-08-04T20:58:17.890Z,844
2022-08-04T21:00:17.785Z,844
2022-08-04T21:02:17.492Z,839
2022-08-04T21:04:20.294Z,837
2022-08-04T21:06:17.972Z,846
2022-08-04T21:08:17.748Z,836
2022-08-04T21:10:17.610Z,833
2022-08-04T21:12:27.080Z,833
2022-08-04T21:14:17.960Z,826
2022-08-04T21:16:54.327Z,836
2022-08-04T21:18:17.791Z,827
2022-08-04T21:20:21.695Z,819
2022-08-04T21:22:22.547Z,825
2022-08-04T21:24:17.767Z,825
2022-08-04T21:26:17.554Z,809
2022-08-04T21:28:19.304Z,819
2022-08-04T21:30:20.242Z,819
2022-08-04T21:32:18.167Z,814
2022-08-04T21:34:31.535Z,815
2022-08-04T21:36:19.658Z,819
2022-08-04T21:38:18.169Z,808
2022-08-04T21:40:30.813Z,805
2022-08-04T21:42:38.982Z,802
2022-08-04T21:44:17.465Z,797
2022-08-04T21:46:18.284Z,793
2022-08-04T21:48:18.270Z,793
2022-08-04T21:50:19.697Z,914
2022-08-04T21:52:17.967Z,835
2022-08-04T21:54:17.625Z,806
2022-08-04T21:56:17.483Z,810
2022-08-04T21:58:17.723Z,825
2022-08-04T22:00:18.304Z,838
2022-08-04T22:02:18.222Z,845
2022-08-04T22:04:18.133Z,850
2022-08-04T22:06:17.928Z,861
2022-08-04T22:08:19.771Z,854
2022-08-04T22:10:18.484Z,856
2022-08-04T22:12:21.083Z,857
2022-08-04T22:14:21.803Z,854
2022-08-04T22:16:17.622Z,835
2022-08-04T22:18:17.865Z,841
2022-08-04T22:20:27.478Z,849
2022-08-04T22:22:24.442Z,862
2022-08-04T22:24:17.610Z,853
2022-08-04T22:26:19.958Z,859
2022-08-04T22:28:18.747Z,858
2022-08-04T22:30:18.076Z,859
2022-08-04T22:32:17.965Z,864
2022-08-04T22:34:17.450Z,867
2022-08-04T22:36:18.099Z,862
2022-08-04T22:38:29.195Z,858
2022-08-04T22:40:17.731Z,858
2022-08-04T22:42:18.306Z,857
2022-08-04T22:44:17.545Z,867
2022-08-04T22:46:17.509Z,856
2022-08-04T22:48:17.513Z,866
2022-08-04T22:50:27.197Z,864
2022-08-04T22:52:27.288Z,856
2022-08-04T22:54:17.627Z,857
2022-08-04T22:56:37.135Z,854
2022-08-04T22:58:17.847Z,854
2022-08-04T23:00:17.784Z,842
2022-08-04T23:02:18.319Z,855
2022-08-04T23:04:18.073Z,841
2022-08-04T23:06:17.796Z,842
2022-08-04T23:08:18.125Z,831
2022-08-04T23:10:17.983Z,830
2022-08-04T23:12:26.949Z,826
2022-08-04T23:14:18.025Z,832
2022-08-04T23:16:17.885Z,837
2022-08-04T23:18:17.946Z,858
2022-08-04T23:20:23.004Z,865
2022-08-04T23:22:17.559Z,881
2022-08-04T23:24:17.906Z,880
2022-08-04T23:26:17.690Z,886
2022-08-04T23:28:17.448Z,875
2022-08-04T23:30:17.563Z,881
2022-08-04T23:32:20.160Z,885
2022-08-04T23:34:18.849Z,894
2022-08-04T23:36:17.818Z,900
2022-08-04T23:38:30.226Z,901
2022-08-04T23:40:32.852Z,893
2022-08-04T23:42:20.832Z,895
2022-08-04T23:44:23.461Z,901
2022-08-04T23:46:17.567Z,905
2022-08-04T23:48:18.951Z,906
2022-08-04T23:50:17.715Z,911
2022-08-04T23:52:23.741Z,914
2022-08-04T23:54:23.417Z,915
2022-08-04T23:56:19.522Z,905
2022-08-04T23:58:18.693Z,913
